Terminal Aerodrome Forecast
Issued by NWS North Platte, NE

Home | Current Version | Previous Version | Text Only | Print | Product List | Glossary Off
Versions: 1 2 3 4 5 6 7 8 9 10 11

000
FTUS43 KLBF 221742 RRA
TAFVTN
TAF
KVTN 221742Z 2218/2318 11008KT P6SM SCT150
     FM230500 14008KT P6SM BKN150
     FM231400 21009KT P6SM SCT150
     FM231700 28011KT P6SM FEW150=

USA.gov is the U.S. government's official web portal to all federal, state and local government web resources and services.